Chatham, Canada
Current Conditions -  °F | °C
As of 10:00 AM on Monday 20 Oct 2014 (Local Time) from CZBF Reporting Station
Broken Clouds Broken Clouds  
Wind Chill: 32°   Ceiling: 2300
Heat Index: 39°   Visibility: 15mi
Dew Point: 28°   Wind: 12mph
Humidity: 65%   Direction: 280°W
Pressure: 29.64"   Gusts: 23mph
Location:  47.03°N, 65.43°W
Report Text: CZBF 201300Z 28010G20KT 250V320 15SM BKN023 BKN220 04/M02 A2964 RMK SC5CC1 CC TR SLP040
Loading
Personal Weather Stations






























Interactive Weather Map
Tropical Storm Tracking
New forecast layout! Learn more

10-Day Weather Forecast

Advertisements
Track Severe Weather on mobile